Burtchville Township, Michigan
Current Conditions -  °F | °C
As of 7:37 AM on Wednesday 26 Nov 2014 (Local Time) from KPHN Reporting Station
Overcast Overcast  
Wind Chill: 30°   Ceiling: 2700
Heat Index: 30°   Visibility: 10mi
Dew Point: 23°   Wind: 0mph
Humidity: 75%   Direction: NA
Pressure: 30.19"   Gusts: NA
Location:  43.0393°N, 82.4847°W
Report Text: KPHN 261237Z AUTO 00000KT 10SM OVC027 M01/M05 A3019 RMK AO2
Loading
Personal Weather Stations






























Interactive Weather Map New forecast layout! Learn more

10-Day Weather Forecast

Advertisements
Track Severe Weather on mobile